Time;durP1;ratioP1;P1;durP2;ratioP2;P2;SDS_P1;SDS_P2;PMS_P1;PMS_P2;Temp;Humidity;BMP_temperature;BMP_pressure;BME280_temperature;BME280_humidity;BME280_pressure;Samples;Min_cycle;Max_cycle;Signal;HPM_P1;HPM_P2
2022/06/26 00:01:36;;;;;;;6.70;6.15;;;17.40;99.90;;;;;;5050748;28;20080;-86
2022/06/26 00:04:02;;;;;;;5.63;5.13;;;17.40;99.90;;;;;;5002027;28;20037;-86
2022/06/26 00:06:28;;;;;;;5.88;5.28;;;17.50;99.90;;;;;;5049617;28;20061;-86
2022/06/26 00:08:54;;;;;;;4.57;4.00;;;17.50;99.90;;;;;;5049240;28;20104;-86
2022/06/26 00:11:20;;;;;;;4.38;3.22;;;17.60;99.90;;;;;;5050139;28;20504;-85
2022/06/26 00:13:46;;;;;;;5.60;3.17;;;17.60;99.90;;;;;;5019621;28;20033;-86
2022/06/26 00:16:12;;;;;;;3.15;2.85;;;17.70;99.90;;;;;;5044582;28;20033;-86
2022/06/26 00:18:38;;;;;;;5.28;3.45;;;17.70;99.90;;;;;;5033842;28;20398;-86
2022/06/26 00:21:05;;;;;;;4.05;3.65;;;17.70;99.90;;;;;;5018316;28;20116;-85
2022/06/26 00:23:31;;;;;;;3.90;3.47;;;17.70;99.90;;;;;;5034042;28;20033;-84
2022/06/26 00:25:56;;;;;;;3.67;3.38;;;17.70;99.90;;;;;;5019413;28;20044;-85
2022/06/26 00:28:22;;;;;;;3.90;3.50;;;17.70;99.90;;;;;;5000363;28;20524;-86
2022/06/26 00:30:48;;;;;;;3.55;3.25;;;17.70;99.90;;;;;;5022900;28;20135;-85
2022/06/26 00:33:13;;;;;;;3.92;3.17;;;17.70;99.90;;;;;;5016767;28;20047;-85
2022/06/26 00:35:39;;;;;;;4.60;2.38;;;17.70;99.90;;;;;;5014938;28;20033;-86
2022/06/26 00:38:05;;;;;;;3.15;2.85;;;17.70;99.90;;;;;;5001914;28;20087;-85
2022/06/26 00:40:30;;;;;;;3.38;2.65;;;17.80;99.90;;;;;;5010194;28;20076;-86
2022/06/26 00:42:56;;;;;;;3.25;2.80;;;17.80;99.90;;;;;;4991411;28;20587;-86
2022/06/26 00:45:22;;;;;;;2.92;2.60;;;17.80;99.90;;;;;;5022888;28;20041;-87
2022/06/26 00:47:48;;;;;;;3.97;3.60;;;17.80;99.90;;;;;;5022981;28;20037;-87
2022/06/26 00:50:13;;;;;;;4.35;3.95;;;17.80;99.90;;;;;;5022837;28;20091;-87
2022/06/26 00:52:40;;;;;;;4.75;4.32;;;17.70;99.90;;;;;;5000121;28;20061;-87
2022/06/26 00:55:07;;;;;;;4.47;3.70;;;17.70;99.90;;;;;;5033372;28;20029;-87
2022/06/26 00:57:35;;;;;;;4.00;3.60;;;17.70;99.90;;;;;;5003282;28;20033;-87
2022/06/26 01:00:03;;;;;;;3.40;3.10;;;17.70;99.90;;;;;;5048897;28;20615;-87
2022/06/26 01:02:29;;;;;;;3.03;2.72;;;17.60;99.90;;;;;;5019554;28;20025;-87
2022/06/26 01:04:54;;;;;;;3.80;3.50;;;17.70;99.90;;;;;;5032356;28;20090;-87
2022/06/26 01:07:20;;;;;;;4.85;4.10;;;17.60;99.90;;;;;;5047084;28;20044;-87
2022/06/26 01:09:46;;;;;;;4.97;4.57;;;17.60;99.90;;;;;;5008928;28;20084;-87
2022/06/26 01:12:11;;;;;;;5.03;4.53;;;17.50;99.90;;;;;;5032827;28;20103;-87
2022/06/26 01:14:38;;;;;;;5.60;4.68;;;17.50;99.90;;;;;;5003506;28;20124;-87
2022/06/26 01:17:04;;;;;;;3.70;3.40;;;17.50;99.90;;;;;;5036142;28;20026;-87
2022/06/26 01:19:30;;;;;;;6.97;6.38;;;17.50;99.90;;;;;;5020185;28;20080;-87
2022/06/26 01:21:56;;;;;;;5.60;5.00;;;17.50;99.90;;;;;;5019513;28;20374;-87
2022/06/26 01:24:22;;;;;;;5.32;4.55;;;17.50;99.90;;;;;;5002005;28;20031;-87
2022/06/26 01:26:48;;;;;;;3.60;3.30;;;17.50;99.90;;;;;;5024489;28;20295;-87
2022/06/26 01:29:15;;;;;;;5.25;4.60;;;17.40;99.90;;;;;;5023794;28;20030;-87
2022/06/26 01:31:41;;;;;;;3.90;3.35;;;17.40;99.90;;;;;;5019408;28;20494;-87
2022/06/26 01:34:08;;;;;;;7.28;5.55;;;17.50;99.90;;;;;;5025539;28;20099;-87
2022/06/26 01:36:35;;;;;;;8.13;7.35;;;17.40;99.90;;;;;;5020369;28;20048;-86
2022/06/26 01:39:02;;;;;;;6.15;5.55;;;17.30;99.90;;;;;;5050833;28;20557;-87
2022/06/26 01:41:28;;;;;;;7.03;6.43;;;17.40;99.90;;;;;;5024326;28;20131;-85
2022/06/26 01:43:55;;;;;;;9.20;8.25;;;17.30;99.90;;;;;;5035670;28;20027;-85
2022/06/26 01:46:23;;;;;;;9.38;8.57;;;17.30;99.90;;;;;;5019897;28;20047;-86
2022/06/26 01:48:49;;;;;;;10.45;9.40;;;17.30;99.90;;;;;;5036947;28;20021;-87
2022/06/26 01:51:15;;;;;;;10.35;9.38;;;17.30;99.90;;;;;;5003294;28;20021;-87
2022/06/26 01:53:43;;;;;;;11.85;10.73;;;17.30;99.90;;;;;;5020744;28;20144;-87
2022/06/26 01:56:09;;;;;;;11.82;10.65;;;17.20;99.90;;;;;;5008267;28;20040;-87
2022/06/26 01:58:42;;;;;;;10.82;9.77;;;17.20;99.90;;;;;;5007596;28;20651;-87
2022/06/26 02:01:11;;;;;;;10.43;9.27;;;17.20;99.90;;;;;;5009045;28;20104;-87
2022/06/26 02:03:37;;;;;;;13.70;12.23;;;17.20;99.90;;;;;;5051380;28;20037;-86
2022/06/26 02:06:03;;;;;;;11.82;9.98;;;17.30;99.90;;;;;;5025263;28;20136;-87
2022/06/26 02:08:30;;;;;;;9.90;8.18;;;17.20;99.90;;;;;;5002524;28;20025;-87
2022/06/26 02:13:44;;;;;;;12.38;9.57;;;17.30;99.90;;;;;;5023809;28;20029;-87
2022/06/26 02:16:15;;;;;;;10.75;9.57;;;17.20;99.90;;;;;;5034696;28;20025;-87
2022/06/26 02:18:45;;;;;;;7.80;7.00;;;17.20;99.90;;;;;;5011191;28;20043;-87
2022/06/26 02:21:14;;;;;;;9.73;8.57;;;17.20;99.90;;;;;;5027356;28;20037;-87
2022/06/26 02:23:41;;;;;;;10.70;8.93;;;17.20;99.90;;;;;;5044073;28;20139;-86
2022/06/26 02:26:08;;;;;;;6.07;5.47;;;17.20;99.90;;;;;;5042521;28;20094;-86
2022/06/26 02:28:35;;;;;;;7.07;6.38;;;17.20;99.90;;;;;;5002585;28;20456;-86
2022/06/26 02:31:00;;;;;;;6.45;5.50;;;17.20;99.90;;;;;;5041848;28;20037;-88
2022/06/26 02:33:28;;;;;;;5.40;4.78;;;17.10;99.90;;;;;;5018041;28;20033;-87
2022/06/26 02:35:55;;;;;;;4.40;4.00;;;17.10;99.90;;;;;;5017700;28;20029;-87
2022/06/26 02:38:23;;;;;;;5.20;4.72;;;17.10;99.90;;;;;;5002219;28;20090;-87
2022/06/26 02:40:49;;;;;;;5.53;4.45;;;17.10;99.90;;;;;;5018586;28;20028;-87
2022/06/26 02:43:15;;;;;;;3.35;3.03;;;17.10;99.90;;;;;;5018547;28;20516;-87
2022/06/26 02:45:41;;;;;;;3.80;3.38;;;17.10;99.90;;;;;;5040185;28;20470;-87
2022/06/26 02:48:08;;;;;;;6.00;5.50;;;17.10;99.90;;;;;;5022827;28;20044;-87
2022/06/26 02:50:33;;;;;;;6.22;5.63;;;17.00;99.90;;;;;;5007194;28;20033;-87
2022/06/26 02:53:00;;;;;;;3.90;3.60;;;16.90;99.90;;;;;;4999302;28;20056;-87
2022/06/26 02:55:28;;;;;;;3.67;2.63;;;16.90;99.90;;;;;;5034038;28;20045;-88
2022/06/26 02:57:53;;;;;;;2.97;2.70;;;16.90;99.90;;;;;;5003840;28;20025;-87
2022/06/26 03:00:19;;;;;;;3.38;3.08;;;16.90;99.90;;;;;;4991045;28;20031;-87
2022/06/26 03:02:47;;;;;;;3.53;2.78;;;16.90;99.90;;;;;;5003737;28;20092;-87
2022/06/26 03:05:13;;;;;;;3.20;2.90;;;17.00;99.90;;;;;;5016212;28;20053;-87
2022/06/26 03:07:40;;;;;;;3.72;1.67;;;17.00;99.90;;;;;;5006832;28;20039;-87
2022/06/26 03:10:07;;;;;;;3.08;2.42;;;17.00;99.90;;;;;;5017360;28;20407;-87
2022/06/26 03:12:33;;;;;;;3.95;3.55;;;17.10;99.90;;;;;;5002951;28;20447;-87
2022/06/26 03:15:02;;;;;;;3.20;2.67;;;17.00;99.90;;;;;;4996134;28;20144;-88
2022/06/26 03:17:28;;;;;;;3.88;2.20;;;17.00;99.90;;;;;;5019062;28;20469;-88
2022/06/26 03:19:54;;;;;;;3.38;2.45;;;17.00;99.90;;;;;;5023293;28;20033;-88
2022/06/26 03:22:20;;;;;;;2.83;2.58;;;17.10;99.90;;;;;;5018074;28;20087;-88
2022/06/26 03:24:46;;;;;;;3.35;2.63;;;17.10;99.90;;;;;;5003226;28;20025;-87
2022/06/26 03:27:12;;;;;;;3.85;3.55;;;17.20;99.90;;;;;;5009096;28;20094;-86
2022/06/26 03:29:37;;;;;;;4.13;3.00;;;17.20;99.90;;;;;;5011250;28;20425;-87
2022/06/26 03:32:06;;;;;;;5.75;4.07;;;17.20;99.90;;;;;;5000026;28;20104;-86
2022/06/26 03:34:34;;;;;;;4.65;3.33;;;17.20;99.90;;;;;;5022487;28;20029;-86
2022/06/26 03:37:00;;;;;;;6.53;5.00;;;17.20;99.90;;;;;;5016335;28;22049;-86
2022/06/26 03:39:26;;;;;;;6.75;6.15;;;17.20;99.90;;;;;;5032337;28;20037;-85
2022/06/26 03:42:02;;;;;;;5.43;4.80;;;17.20;99.90;;;;;;5032984;28;20116;-86
2022/06/26 03:44:32;;;;;;;7.43;6.78;;;17.20;99.90;;;;;;5000771;28;20028;-86
2022/06/26 03:46:58;;;;;;;7.50;6.88;;;17.20;99.90;;;;;;5021273;28;20049;-85
2022/06/26 03:49:25;;;;;;;7.03;6.43;;;17.20;99.90;;;;;;5015830;28;20018;-86
2022/06/26 03:51:51;;;;;;;9.82;8.93;;;17.20;99.90;;;;;;5040902;28;20481;-86
2022/06/26 03:54:19;;;;;;;8.68;7.88;;;17.20;99.90;;;;;;5038338;28;20063;-86
2022/06/26 03:56:46;;;;;;;8.38;7.57;;;17.20;99.90;;;;;;5022875;28;20072;-85
2022/06/26 03:59:12;;;;;;;10.52;9.45;;;17.20;99.90;;;;;;5012094;28;20113;-86
2022/06/26 04:01:38;;;;;;;10.27;9.13;;;17.10;99.90;;;;;;4988890;28;20116;-86
2022/06/26 04:04:04;;;;;;;7.50;6.80;;;17.10;99.90;;;;;;5018249;28;20049;-86
2022/06/26 04:06:30;;;;;;;10.48;9.05;;;17.20;99.90;;;;;;5016963;28;20049;-86
2022/06/26 04:09:03;;;;;;;10.27;9.27;;;17.20;99.90;;;;;;5009798;28;20294;-86
2022/06/26 04:11:30;;;;;;;10.52;9.52;;;17.10;99.90;;;;;;5022995;28;20060;-86
2022/06/26 04:13:58;;;;;;;10.68;9.57;;;17.10;99.90;;;;;;5007122;28;20477;-86
2022/06/26 04:16:26;;;;;;;9.48;8.55;;;17.20;99.90;;;;;;5037534;28;20060;-87
2022/06/26 04:18:52;;;;;;;8.07;7.28;;;17.10;99.90;;;;;;5015827;28;20024;-86
2022/06/26 04:21:19;;;;;;;9.95;8.73;;;17.00;99.90;;;;;;5005622;28;20140;-86
2022/06/26 04:23:46;;;;;;;6.82;6.15;;;17.00;99.90;;;;;;5018061;28;20039;-85
2022/06/26 04:26:17;;;;;;;8.98;6.80;;;17.10;99.90;;;;;;5016894;28;20076;-86
2022/06/26 04:28:43;;;;;;;9.93;6.28;;;17.00;99.90;;;;;;5005441;28;20039;-85
2022/06/26 04:31:09;;;;;;;10.98;7.90;;;17.00;99.90;;;;;;5034699;28;20474;-86
2022/06/26 04:33:36;;;;;;;10.65;7.18;;;17.00;99.90;;;;;;5019779;28;20073;-86
2022/06/26 04:36:08;;;;;;;9.65;7.35;;;17.00;99.90;;;;;;5020883;28;20040;-85
2022/06/26 04:38:36;;;;;;;8.35;6.28;;;17.00;99.90;;;;;;5007158;28;20103;-84
2022/06/26 04:41:31;;;;;;;10.77;9.40;;;17.00;99.90;;;;;;5028546;28;20124;-85
2022/06/26 04:43:47;;;;;;;11.93;10.35;;;16.90;99.90;;;;;;5022157;28;20026;-85
2022/06/26 04:46:13;;;;;;;11.70;10.05;;;16.90;99.90;;;;;;5049837;28;20052;-84
2022/06/26 04:48:41;;;;;;;13.73;11.00;;;16.80;99.90;;;;;;5020465;28;20025;-86
2022/06/26 04:51:09;;;;;;;14.43;12.60;;;16.80;99.90;;;;;;5034502;28;20029;-84
2022/06/26 04:53:34;;;;;;;11.45;9.45;;;16.70;99.90;;;;;;5016446;28;20031;-86
2022/06/26 04:56:00;;;;;;;14.18;11.77;;;16.80;99.90;;;;;;5018317;28;20162;-85
2022/06/26 04:58:34;;;;;;;9.27;8.25;;;16.70;99.90;;;;;;5009057;28;20071;-85
2022/06/26 05:00:59;;;;;;;11.23;8.20;;;17.00;99.90;;;;;;5015525;28;20160;-84
2022/06/26 05:03:34;;;;;;;8.52;6.97;;;16.90;99.90;;;;;;5015461;28;20032;-84
2022/06/26 05:06:25;;;;;;;6.25;4.85;;;17.00;99.90;;;;;;4995107;28;20053;-85
2022/06/26 05:09:06;;;;;;;11.30;8.75;;;17.00;99.90;;;;;;5016837;28;20084;-85
2022/06/26 05:11:32;;;;;;;10.93;8.85;;;16.90;99.90;;;;;;5031415;28;20029;-85
2022/06/26 05:13:57;;;;;;;10.48;9.18;;;16.80;99.90;;;;;;4998094;28;20043;-85
2022/06/26 05:16:36;;;;;;;11.60;9.20;;;16.70;99.90;;;;;;5021819;28;20060;-86
2022/06/26 05:19:03;;;;;;;14.80;11.55;;;16.70;99.90;;;;;;5018576;28;20037;-85
2022/06/26 05:21:30;;;;;;;12.15;10.18;;;16.60;99.90;;;;;;5014755;28;20496;-85
2022/06/26 05:23:56;;;;;;;10.88;9.32;;;16.60;99.90;;;;;;5021804;28;22195;-85
2022/06/26 05:26:22;;;;;;;13.85;11.60;;;16.70;99.90;;;;;;5002368;28;20076;-84
2022/06/26 05:28:51;;;;;;;;;;;16.70;99.90;;;;;;5018968;28;20028;-85
2022/06/26 05:31:17;;;;;;;12.52;9.68;;;16.60;99.90;;;;;;5017384;28;19916;-83
2022/06/26 05:33:43;;;;;;;10.77;9.23;;;16.60;99.90;;;;;;5012894;28;20418;-83
2022/06/26 05:36:10;;;;;;;16.48;11.15;;;16.70;99.90;;;;;;5014848;28;20481;-84
2022/06/26 05:38:38;;;;;;;15.90;12.85;;;16.70;99.90;;;;;;5002219;28;20032;-85
2022/06/26 05:41:05;;;;;;;13.40;11.02;;;16.70;99.90;;;;;;5048361;28;20029;-82
2022/06/26 05:43:31;;;;;;;11.57;9.98;;;16.60;99.90;;;;;;4997778;28;20502;-84
2022/06/26 05:45:57;;;;;;;10.48;8.52;;;16.70;99.90;;;;;;4999687;28;20398;-84
2022/06/26 05:48:44;;;;;;;12.95;9.60;;;16.80;99.90;;;;;;4991182;28;20449;-85
2022/06/26 05:51:39;;;;;;;11.95;8.18;;;16.70;99.90;;;;;;4994278;28;20456;-90
2022/06/26 05:54:23;;;;;;;9.00;6.85;;;16.70;99.90;;;;;;5006528;28;20056;-85
2022/06/26 05:57:07;;;;;;;7.80;6.72;;;16.70;99.90;;;;;;5030971;28;20060;-85
2022/06/26 05:59:47;;;;;;;9.98;6.63;;;16.80;99.90;;;;;;5044577;28;20030;-84
2022/06/26 06:02:43;;;;;;;8.50;6.57;;;16.70;99.90;;;;;;5033073;28;20047;-86
2022/06/26 06:05:10;;;;;;;10.25;7.72;;;16.80;99.90;;;;;;5032521;28;20050;-85
2022/06/26 06:07:36;;;;;;;12.52;9.93;;;16.60;99.90;;;;;;5009591;28;20774;-85
2022/06/26 06:10:06;;;;;;;10.27;8.13;;;16.40;99.90;;;;;;4997662;28;20030;-85
2022/06/26 06:12:33;;;;;;;10.48;8.57;;;16.40;99.90;;;;;;5000209;28;20037;-86
2022/06/26 06:14:59;;;;;;;11.40;8.52;;;16.50;99.90;;;;;;4982581;28;20029;-85
2022/06/26 06:17:35;;;;;;;15.02;11.38;;;16.70;99.90;;;;;;4996779;28;20026;-86
2022/06/26 06:20:06;;;;;;;9.10;7.40;;;16.90;99.90;;;;;;4986028;28;20029;-84
2022/06/26 06:22:40;;;;;;;11.00;7.97;;;17.30;99.90;;;;;;4998151;28;20033;-84
2022/06/26 06:25:07;;;;;;;7.25;5.50;;;17.50;99.90;;;;;;4996195;28;20033;-85
2022/06/26 06:27:33;;;;;;;9.65;6.07;;;18.00;99.90;;;;;;5012363;28;20034;-87
2022/06/26 06:30:07;;;;;;;4.93;4.40;;;17.90;99.90;;;;;;5008384;28;20026;-84
2022/06/26 06:32:33;;;;;;;8.00;5.30;;;18.30;99.90;;;;;;4984452;28;20056;-84
2022/06/26 06:35:00;;;;;;;4.40;3.50;;;18.40;99.90;;;;;;4996780;28;20121;-85
2022/06/26 06:37:26;;;;;;;8.98;6.25;;;18.70;99.90;;;;;;4980049;28;20080;-84
2022/06/26 06:39:52;;;;;;;7.68;5.40;;;18.40;99.90;;;;;;5004821;28;20056;-86
2022/06/26 06:42:18;;;;;;;4.78;3.20;;;18.40;99.90;;;;;;4998665;28;20176;-86
2022/06/26 06:44:43;;;;;;;3.08;2.40;;;18.80;99.90;;;;;;4998581;28;20109;-84
2022/06/26 06:47:28;;;;;;;4.55;3.38;;;19.00;99.90;;;;;;4976003;28;20038;-84
2022/06/26 06:50:13;;;;;;;3.67;2.20;;;18.60;99.90;;;;;;5001941;28;20037;-87
2022/06/26 06:52:39;;;;;;;7.57;5.15;;;19.30;99.90;;;;;;4997456;28;20040;-83
2022/06/26 06:55:06;;;;;;;7.35;4.22;;;18.40;99.90;;;;;;4999344;28;20040;-88
2022/06/26 06:57:31;;;;;;;5.55;3.45;;;18.60;99.90;;;;;;5001201;28;20615;-84
2022/06/26 06:59:57;;;;;;;3.55;2.30;;;18.60;99.90;;;;;;4996559;28;20044;-84
2022/06/26 07:02:23;;;;;;;3.53;1.25;;;19.50;99.90;;;;;;4993856;28;20032;-83
2022/06/26 07:04:50;;;;;;;3.38;1.65;;;19.80;99.90;;;;;;4993585;28;20044;-83
2022/06/26 07:07:18;;;;;;;3.05;1.40;;;20.00;99.90;;;;;;5015035;28;20040;-83
2022/06/26 07:09:44;;;;;;;5.97;2.92;;;19.90;99.90;;;;;;5031867;28;20477;-83
2022/06/26 07:12:10;;;;;;;3.38;1.90;;;19.30;99.90;;;;;;5000000;28;20029;-83
2022/06/26 07:14:36;;;;;;;4.75;2.05;;;19.90;99.90;;;;;;5013675;28;20036;-81
2022/06/26 07:17:01;;;;;;;4.00;2.30;;;20.20;99.90;;;;;;5044528;28;20040;-82
2022/06/26 07:19:27;;;;;;;3.75;1.92;;;20.10;99.90;;;;;;5030291;28;20076;-81
2022/06/26 07:21:57;;;;;;;2.42;0.90;;;20.40;99.90;;;;;;5000230;28;20107;-82
2022/06/26 07:24:23;;;;;;;1.70;0.80;;;21.00;99.90;;;;;;4998618;28;20027;-83
2022/06/26 07:27:06;;;;;;;4.82;1.77;;;21.00;99.90;;;;;;5002370;28;20041;-84
2022/06/26 07:29:37;;;;;;;3.85;3.25;;;20.20;99.90;;;;;;5028857;28;20025;-85
2022/06/26 07:32:03;;;;;;;2.22;1.30;;;19.60;99.90;;;;;;5020663;28;20037;-85
2022/06/26 07:34:31;;;;;;;3.85;1.92;;;20.00;99.90;;;;;;5013509;28;20377;-82
2022/06/26 07:36:59;;;;;;;3.45;1.83;;;20.20;99.90;;;;;;5022930;28;20450;-84
2022/06/26 07:39:25;;;;;;;3.70;1.35;;;20.50;99.90;;;;;;5038774;28;20045;-83
2022/06/26 07:41:51;;;;;;;2.00;1.02;;;20.20;99.90;;;;;;5016304;28;20392;-84
2022/06/26 07:44:18;;;;;;;2.78;0.70;;;20.50;99.90;;;;;;5039276;28;20029;-83
2022/06/26 07:46:46;;;;;;;1.40;0.50;;;21.40;99.90;;;;;;4999149;28;20036;-83
2022/06/26 07:49:21;;;;;;;1.83;0.82;;;21.60;99.90;;;;;;4999260;28;20415;-86
2022/06/26 07:51:47;;;;;;;3.15;0.80;;;21.40;99.90;;;;;;5013617;28;20564;-86
2022/06/26 07:54:12;;;;;;;2.45;0.60;;;20.40;99.90;;;;;;5032341;28;20432;-84
2022/06/26 07:56:38;;;;;;;4.07;0.70;;;20.50;99.90;;;;;;5019311;28;20382;-84
2022/06/26 07:59:04;;;;;;;1.35;0.50;;;20.20;99.90;;;;;;5030220;28;20029;-83
2022/06/26 08:01:30;;;;;;;0.95;0.40;;;21.30;99.90;;;;;;5019710;28;20095;-83
2022/06/26 08:03:55;;;;;;;1.23;0.38;;;21.90;99.90;;;;;;4997114;28;20112;-83
2022/06/26 08:06:21;;;;;;;1.85;0.30;;;22.00;99.90;;;;;;5047064;28;20482;-83
2022/06/26 08:08:48;;;;;;;1.50;0.40;;;22.10;99.90;;;;;;5030602;28;20043;-85
2022/06/26 08:11:13;;;;;;;1.63;0.40;;;22.10;99.90;;;;;;5029202;28;20033;-82
2022/06/26 08:13:39;;;;;;;1.42;0.40;;;21.30;99.90;;;;;;5018677;28;20038;-87
2022/06/26 08:16:05;;;;;;;1.63;0.50;;;21.60;99.90;;;;;;5014676;28;20029;-81
2022/06/26 08:18:31;;;;;;;1.98;0.40;;;22.00;99.90;;;;;;5011882;28;20036;-87
2022/06/26 08:20:56;;;;;;;2.22;0.45;;;21.40;99.90;;;;;;5012127;28;20515;-83
2022/06/26 08:23:22;;;;;;;1.55;0.45;;;21.00;99.90;;;;;;5010924;28;20029;-84
2022/06/26 08:25:48;;;;;;;2.60;0.40;;;20.70;99.90;;;;;;5041718;28;20045;-82
2022/06/26 08:28:14;;;;;;;1.50;0.40;;;21.80;99.90;;;;;;4996651;28;20769;-83
2022/06/26 08:30:40;;;;;;;0.75;0.20;;;22.30;99.90;;;;;;5001258;28;20034;-85
2022/06/26 08:33:05;;;;;;;0.70;0.30;;;22.60;99.90;;;;;;5018225;28;20063;-83
2022/06/26 08:35:31;;;;;;;1.52;0.40;;;21.90;99.90;;;;;;5038235;28;20029;-83
2022/06/26 08:37:57;;;;;;;1.35;0.30;;;21.90;99.90;;;;;;5013020;28;20075;-84
2022/06/26 08:40:23;;;;;;;0.60;0.20;;;22.10;99.90;;;;;;5011412;28;20396;-84
2022/06/26 08:42:52;;;;;;;2.60;0.35;;;22.40;99.90;;;;;;5029445;28;20037;-86
2022/06/26 08:45:22;;;;;;;1.50;0.40;;;21.70;99.90;;;;;;5014089;28;20026;-88
2022/06/26 08:47:52;;;;;;;0.90;0.30;;;21.30;99.90;;;;;;4999376;28;20045;-83
2022/06/26 08:50:21;;;;;;;3.58;0.40;;;21.40;99.90;;;;;;5001630;28;20082;-84
2022/06/26 08:52:49;;;;;;;2.67;0.30;;;20.90;99.90;;;;;;5046145;28;20024;-84
2022/06/26 08:55:16;;;;;;;1.60;0.30;;;21.40;99.90;;;;;;5014045;28;20041;-84
2022/06/26 08:57:41;;;;;;;1.42;0.30;;;21.60;99.90;;;;;;5032443;28;20415;-83
2022/06/26 09:00:08;;;;;;;1.75;0.40;;;21.60;99.90;;;;;;4998637;28;20033;-84
2022/06/26 09:02:33;;;;;;;1.77;0.40;;;20.90;99.90;;;;;;5017043;28;20041;-85
2022/06/26 09:04:59;;;;;;;2.22;0.35;;;21.10;99.90;;;;;;5002534;28;20040;-84
2022/06/26 09:07:25;;;;;;;2.17;0.30;;;21.10;99.90;;;;;;5000209;28;20044;-83
2022/06/26 09:09:51;;;;;;;1.00;0.30;;;21.40;99.90;;;;;;5013747;28;20128;-84
2022/06/26 09:12:16;;;;;;;1.60;0.20;;;21.90;99.90;;;;;;5031149;28;20025;-84
2022/06/26 09:14:43;;;;;;;1.00;0.30;;;22.30;99.90;;;;;;5020227;28;20112;-86
2022/06/26 09:17:09;;;;;;;0.70;0.28;;;22.20;99.90;;;;;;5015522;28;20047;-82
2022/06/26 09:19:36;;;;;;;1.60;0.30;;;22.20;99.90;;;;;;5017403;28;20025;-83
2022/06/26 09:22:13;;;;;;;1.67;0.25;;;22.50;99.90;;;;;;5029407;28;20457;-84
2022/06/26 09:24:50;;;;;;;1.98;0.22;;;22.50;99.90;;;;;;5014190;28;20033;-86
2022/06/26 09:27:16;;;;;;;0.82;0.20;;;21.90;99.90;;;;;;5019318;28;20041;-84
2022/06/26 09:29:48;;;;;;;2.25;0.40;;;21.60;99.90;;;;;;5005073;28;20040;-85
2022/06/26 09:32:15;;;;;;;1.27;0.30;;;21.70;99.90;;;;;;4996724;28;20033;-83
2022/06/26 09:34:53;;;;;;;1.30;0.22;;;21.70;99.90;;;;;;5028606;28;20075;-85
2022/06/26 09:37:20;;;;;;;1.35;0.30;;;22.00;99.90;;;;;;5025357;28;20025;-86
2022/06/26 09:39:46;;;;;;;2.55;0.50;;;21.60;99.90;;;;;;5007026;28;20040;-84
2022/06/26 09:42:18;;;;;;;1.90;0.50;;;20.90;99.90;;;;;;5001430;28;20025;-86
2022/06/26 09:44:54;;;;;;;2.60;0.40;;;20.50;99.90;;;;;;5048461;28;20032;-84
2022/06/26 09:47:29;;;;;;;1.70;0.30;;;20.60;99.90;;;;;;5046875;28;20371;-89
2022/06/26 09:50:00;;;;;;;1.95;0.40;;;21.10;99.90;;;;;;5005798;28;20029;-86
2022/06/26 09:52:28;;;;;;;1.63;0.40;;;21.00;99.90;;;;;;5034021;28;20098;-85
2022/06/26 09:54:55;;;;;;;1.85;0.30;;;21.10;99.90;;;;;;4999024;28;20034;-85
2022/06/26 09:57:22;;;;;;;1.65;0.30;;;21.30;99.90;;;;;;5032260;28;20036;-85
2022/06/26 09:59:47;;;;;;;1.63;0.40;;;21.10;99.90;;;;;;5048568;28;20448;-87
2022/06/26 10:07:52;;;;;;;1.58;0.30;;;21.40;99.90;;;;;;5021822;28;20402;-85
2022/06/26 10:10:22;;;;;;;1.02;0.20;;;21.80;99.90;;;;;;5016348;28;20121;-85
2022/06/26 10:12:53;;;;;;;1.52;0.30;;;21.90;99.90;;;;;;5013301;28;20034;-84
2022/06/26 10:15:22;;;;;;;1.35;0.35;;;21.80;99.90;;;;;;5016155;28;20493;-85
2022/06/26 10:18:30;;;;;;;1.05;0.32;;;21.30;99.90;;;;;;5000732;28;20028;-84
2022/06/26 10:20:58;;;;;;;2.28;0.50;;;21.30;99.90;;;;;;5011185;28;20528;-85
2022/06/26 10:23:37;;;;;;;2.75;0.40;;;21.00;99.90;;;;;;5032010;28;20033;-85
2022/06/26 10:26:21;;;;;;;1.15;0.40;;;21.10;99.90;;;;;;5031213;28;20587;-85
2022/06/26 10:29:01;;;;;;;1.73;0.47;;;21.10;99.90;;;;;;5022130;28;20029;-86
2022/06/26 10:31:47;;;;;;;1.33;0.40;;;21.30;99.90;;;;;;5027545;28;20021;-84
2022/06/26 10:34:19;;;;;;;3.15;0.90;;;21.50;99.90;;;;;;5024313;28;20371;-86
2022/06/26 10:37:06;;;;;;;2.60;0.88;;;20.80;99.90;;;;;;5017973;28;20025;-86
2022/06/26 10:39:49;;;;;;;2.95;0.77;;;20.70;99.90;;;;;;5014406;28;20044;-87
2022/06/26 10:45:19;;;;;;;1.75;0.40;;;21.00;99.90;;;;;;5014735;28;20040;-84
2022/06/26 10:47:53;;;;;;;2.25;0.50;;;21.40;99.90;;;;;;5015836;28;20061;-85
2022/06/26 10:50:33;;;;;;;1.50;0.40;;;21.50;99.90;;;;;;5038838;28;20730;-84
2022/06/26 10:53:20;;;;;;;1.38;0.40;;;21.40;99.90;;;;;;5017057;28;20036;-84
2022/06/26 10:55:50;;;;;;;3.17;0.60;;;21.50;99.90;;;;;;5047066;28;20163;-86
2022/06/26 10:58:22;;;;;;;1.98;0.50;;;21.20;99.90;;;;;;4998474;28;20037;-83
2022/06/26 11:00:48;;;;;;;1.42;0.40;;;21.50;99.90;;;;;;5004082;28;20025;-85
2022/06/26 11:03:18;;;;;;;1.48;0.40;;;21.60;99.90;;;;;;5037924;28;20044;-85
2022/06/26 11:06:02;;;;;;;1.73;0.50;;;21.30;99.90;;;;;;5011350;28;20413;-83
2022/06/26 11:08:44;;;;;;;1.30;0.40;;;21.40;99.90;;;;;;5023716;28;20034;-82
2022/06/26 11:11:17;;;;;;;1.83;0.50;;;21.50;99.90;;;;;;4997110;28;20036;-86
2022/06/26 11:13:53;;;;;;;1.90;0.50;;;21.10;99.90;;;;;;5034026;28;20033;-84
2022/06/26 11:16:31;;;;;;;2.90;0.40;;;21.30;99.90;;;;;;5020540;28;20036;-84
2022/06/26 11:18:58;;;;;;;1.63;0.43;;;21.10;99.90;;;;;;5021304;28;20024;-85
2022/06/26 11:21:26;;;;;;;3.25;0.50;;;21.10;99.90;;;;;;5032977;28;20057;-86
2022/06/26 11:23:53;;;;;;;2.55;0.50;;;21.40;99.90;;;;;;5004628;28;20457;-85
2022/06/26 11:26:21;;;;;;;1.75;0.50;;;21.20;99.90;;;;;;5032723;28;20403;-87
2022/06/26 11:29:00;;;;;;;1.73;0.40;;;21.20;99.90;;;;;;5016969;28;20025;-86
2022/06/26 11:31:29;;;;;;;0.85;0.30;;;21.30;99.90;;;;;;5018242;28;20075;-86
2022/06/26 11:33:55;;;;;;;1.65;0.40;;;21.00;99.90;;;;;;5021994;28;20159;-86
2022/06/26 11:36:22;;;;;;;0.80;0.30;;;21.40;99.90;;;;;;5033749;28;20091;-86
2022/06/26 11:38:51;;;;;;;1.58;0.43;;;21.40;99.90;;;;;;4997442;28;20025;-85
2022/06/26 11:41:19;;;;;;;1.70;0.40;;;21.00;99.90;;;;;;5027128;28;20072;-86
2022/06/26 11:43:50;;;;;;;1.10;0.25;;;21.00;99.90;;;;;;5019668;28;20082;-85
2022/06/26 11:46:16;;;;;;;1.73;0.30;;;21.00;99.90;;;;;;5018421;28;20092;-87
2022/06/26 11:48:42;;;;;;;0.90;0.30;;;20.90;99.90;;;;;;5016446;28;20104;-86
2022/06/26 11:51:12;;;;;;;1.67;0.32;;;20.60;99.90;;;;;;5000113;28;20033;-85
2022/06/26 11:53:38;;;;;;;0.63;0.30;;;20.60;99.90;;;;;;5033439;28;20131;-86
2022/06/26 11:56:04;;;;;;;0.85;0.20;;;20.50;99.90;;;;;;5024376;28;20571;-87
2022/06/26 11:58:32;;;;;;;1.38;0.30;;;20.50;99.90;;;;;;4998314;28;20033;-87
2022/06/26 12:01:09;;;;;;;0.85;0.28;;;20.50;99.90;;;;;;4998018;28;20060;-87
2022/06/26 12:03:48;;;;;;;1.95;0.30;;;20.60;99.90;;;;;;4996620;28;20035;-87
2022/06/26 12:06:31;;;;;;;2.08;0.30;;;20.60;99.90;;;;;;4982615;28;20461;-87
2022/06/26 12:08:58;;;;;;;0.77;0.30;;;20.50;99.90;;;;;;5008847;28;20486;-86
2022/06/26 12:11:25;;;;;;;0.95;0.40;;;20.30;99.90;;;;;;4982149;28;20036;-88
2022/06/26 12:13:51;;;;;;;1.90;0.30;;;20.10;99.90;;;;;;4995945;28;20026;-86
2022/06/26 12:16:18;;;;;;;1.42;0.30;;;20.10;99.90;;;;;;4984593;28;20054;-88
2022/06/26 12:18:47;;;;;;;1.23;0.30;;;20.10;99.90;;;;;;4999426;28;20127;-88
2022/06/26 12:21:21;;;;;;;1.98;0.35;;;20.10;99.90;;;;;;5001876;28;20037;-88
2022/06/26 12:23:48;;;;;;;1.63;0.32;;;20.10;99.90;;;;;;4993741;28;20269;-88
2022/06/26 12:26:19;;;;;;;1.33;0.30;;;20.00;99.90;;;;;;4982908;28;20577;-87
2022/06/26 12:28:49;;;;;;;1.52;0.30;;;19.90;99.90;;;;;;5004780;28;20033;-88
2022/06/26 12:31:15;;;;;;;;;;;19.80;99.90;;;;;;5012155;28;20030;-88
2022/06/26 12:33:41;;;;;;;1.48;0.30;;;19.80;99.90;;;;;;5000051;28;19913;-87
2022/06/26 12:36:07;;;;;;;0.93;0.30;;;19.60;99.90;;;;;;4995073;28;20037;-88
2022/06/26 12:38:35;;;;;;;1.50;0.35;;;19.80;99.90;;;;;;5010032;28;20104;-86
2022/06/26 12:41:05;;;;;;;2.17;0.30;;;19.80;99.90;;;;;;4996293;28;20092;-87
2022/06/26 12:43:31;;;;;;;1.80;0.40;;;19.80;99.90;;;;;;4994622;28;20091;-86
2022/06/26 12:45:57;;;;;;;1.83;0.40;;;19.70;99.90;;;;;;4992203;28;20042;-88
2022/06/26 12:48:23;;;;;;;1.63;0.40;;;19.80;99.90;;;;;;4994362;28;20103;-88
2022/06/26 12:50:49;;;;;;;2.72;0.40;;;19.90;99.90;;;;;;4998467;28;20385;-87
2022/06/26 12:53:15;;;;;;;1.33;0.40;;;19.80;99.90;;;;;;4995994;28;20595;-88
2022/06/26 12:55:41;;;;;;;0.90;0.30;;;19.60;99.90;;;;;;4995691;28;20041;-88
2022/06/26 12:58:06;;;;;;;2.65;0.40;;;19.80;99.90;;;;;;4998764;28;20066;-88
2022/06/26 13:00:32;;;;;;;0.93;0.30;;;19.60;99.90;;;;;;4993758;28;20037;-86
2022/06/26 13:02:58;;;;;;;0.77;0.20;;;19.70;99.90;;;;;;4994095;28;20042;-87
2022/06/26 13:05:24;;;;;;;1.42;0.25;;;19.60;99.90;;;;;;4996458;28;20098;-88